Schedule Details


Flight Number: CTN490
Departure: Krk Island (LDRI) at 09:30
Arrival: Heathrow (EGLL) at 11:00
Route: NAKIT UN606 BABAG N606 BADOP P66 SOTOV UP66 KPT UL608 TEDGO UZ210 LAMGO UM150 KRH UZ210 LIRSU UL608 BUB UY28 HELEN UL179 COA L179 SASKI L608 LOGAN

Weather Information

EGLL 170050Z AUTO 26011KT 9999 BKN032 07/05 Q1009 NOSIG
Schedule Frequency

Route Map